Theodore Roosevelt National Park, ND

3:36 PM MST on January 31, 2015 (GMT -0700)
Dickinson Municipal | Change Station
CLOSE
Current Station
Airport
Location: Dickinson,
Elevation: 2592 ft
Nearby Weather Stations

Elev 2592 ft 46.80 °N, 102.80 °W | Updated 8 minutes ago

Snow
Snow
10 °F
Feels Like -9 °F
N
21
Wind Variable Wind from NE
Gusts 25 mph

Today
High -- | Low -- °F
--% Chance of Precip.
Yesterday
High -- | Low -- °F
Precip. -- in
7:17 AM 4:52 PM
Waxing Gibbous, 92% visible
Pressure 30.15 in
Visibility 1.8 miles
Clouds Scattered Clouds 1400 ft
Overcast 3500 ft
Windchill -9 °F
Dew Point 5 °F
Humidity 80%
Rainfall 0.00 in
Snow Depth Not available.
UV 0 out of 12
Pollen .10 out of 12
Air Quality Not available.
Flu Activity Not available.
SPECI KDIK 312228Z AUTO 05018G22KT 1 3/4SM -SN SCT014 OVC035 M12/M15 A3015 RMK AO2 P0000 T11221150

More Conditions Fewer Conditions

Pressure 30.15 in
Visibility 1.8 miles
Clouds Scattered Clouds 1400 ft
Overcast 3500 ft
Windchill -9 °F
Dew Point 5 °F
Humidity 80%
Rainfall 0.00 in
Snow Depth Not available.
UV 0 out of 12
Pollen .10 out of 12
Air Quality Not available.
Flu Activity Not available.
SPECI KDIK 312228Z AUTO 05018G22KT 1 3/4SM -SN SCT014 OVC035 M12/M15 A3015 RMK AO2 P0000 T11221150

More Conditions Fewer Conditions

10-Day Weather Forecast

Almanac

Astronomy

Jan. 31, 2015 Rise Set
Actual Time
Civil Twilight
Nautical Twilight
Astronomical Twilight
Moon
Length of Visible Light
Length of Day
Tomorrow will be .
, % of the Moon is Illuminated

Today's Extremes

State Highs State Lows

Community

WunderPhotos

Upload Photos

1,792,226 photos uploaded!

WunderBlogs® & News

Nearby

Air Quality

  Air Quality AQ Index Pollutant
Not available.

Snow Depth

Station Depth Elevation

Earthquake Activity

City Distance Mag. Time & Date
Minimum magnitude displayed is 2.5.

Coastal Water Temperatures

Place Temperature

Nearby Weather Stations